Time;durP1;ratioP1;P1;durP2;ratioP2;P2;SDS_P1;SDS_P2;PMS_P1;PMS_P2;Temp;Humidity;BMP_temperature;BMP_pressure;BME280_temperature;BME280_humidity;BME280_pressure;Samples;Min_cycle;Max_cycle;Signal;HPM_P1;HPM_P2
2022/05/04 00:01:54;;;;;;;;;;;;;;;;;;5086756;28;20001;-63
2022/05/04 00:04:21;;;;;;;;;;;;;;;;;;5088172;28;19940;-64
2022/05/04 00:06:47;;;;;;;;;;;;;;;;;;5084092;28;20641;-64
2022/05/04 00:09:13;;;;;;;;;;;;;;;;;;5088296;28;20180;-64
2022/05/04 00:11:40;;;;;;;;;;;;;;;;;;5079898;28;19936;-64
2022/05/04 00:14:06;;;;;;;;;;;;;;;;;;5080093;28;20027;-64
2022/05/04 00:16:32;;;;;;;;;;;;;;;;;;5085628;28;19925;-65
2022/05/04 00:18:58;;;;;;;;;;;;;;;;;;5082412;28;19940;-66
2022/05/04 00:21:24;;;;;;;;;;;;;;;;;;5090329;28;19931;-65
2022/05/04 00:23:51;;;;;;;;;;;;;;;;;;5083122;28;20403;-63
2022/05/04 00:26:17;;;;;;;;;;;;;;;;;;5082729;28;20296;-65
2022/05/04 00:28:43;;;;;;;;;;;;;;;;;;5083272;28;19935;-65
2022/05/04 00:31:09;;;;;;;;;;;;;;;;;;5083297;28;19925;-65
2022/05/04 00:33:35;;;;;;;;;;;;;;;;;;5086364;28;19924;-65
2022/05/04 00:36:01;;;;;;;;;;;;;;;;;;5088416;28;19927;-64
2022/05/04 00:38:27;;;;;;;;;;;;;;;;;;5081064;28;19937;-64
2022/05/04 00:40:54;;;;;;;;;;;;;;;;;;5086403;28;19924;-65
2022/05/04 00:43:20;;;;;;;;;;;;;;;;;;5085365;28;20002;-63
2022/05/04 00:45:46;;;;;;;;;;;;;;;;;;5086129;28;19923;-65
2022/05/04 00:48:12;;;;;;;;;;;;;;;;;;5082650;28;19932;-65
2022/05/04 00:50:38;;;;;;;;;;;;;;;;;;5083055;28;19928;-64
2022/05/04 00:53:04;;;;;;;;;;;;;;;;;;5083672;28;19924;-65
2022/05/04 00:55:31;;;;;;;;;;;;;;;;;;5090096;28;19924;-61
2022/05/04 01:00:41;;;;;;;;;;;;;;;;;;5078600;28;19919;-61
2022/05/04 01:03:07;;;;;;;;;;;;;;;;;;5086655;28;20110;-61
2022/05/04 01:05:33;;;;;;;;;;;;;;;;;;5088726;28;20420;-60
2022/05/04 01:07:59;;;;;;;;;;;;;;;;;;5082104;28;20391;-62
2022/05/04 01:10:25;;;;;;;;;;;;;;;;;;5082132;28;20334;-60
2022/05/04 01:12:51;;;;;;;;;;;;;;;;;;5086149;28;19927;-59
2022/05/04 01:15:17;;;;;;;;;;;;;;;;;;5081812;28;19947;-63
2022/05/04 01:17:44;;;;;;;;;;;;;;;;;;5082940;28;19930;-66
2022/05/04 01:20:10;;;;;;;;;;;;;;;;;;5081818;28;19925;-67
2022/05/04 01:22:36;;;;;;;;;;;;;;;;;;5085773;28;20018;-67
2022/05/04 01:25:02;;;;;;;;;;;;;;;;;;5082204;28;19924;-66
2022/05/04 01:27:28;;;;;;;;;;;;;;;;;;5088279;28;19928;-66
2022/05/04 01:29:54;;;;;;;;;;;;;;;;;;5085686;28;19924;-66
2022/05/04 01:32:20;;;;;;;;;;;;;;;;;;5078663;28;19940;-66
2022/05/04 01:34:46;;;;;;;;;;;;;;;;;;5083376;28;19924;-66
2022/05/04 01:37:13;;;;;;;;;;;;;;;;;;5088989;28;19951;-63
2022/05/04 01:39:39;;;;;;;;;;;;;;;;;;5080748;28;19934;-63
2022/05/04 01:42:05;;;;;;;;;;;;;;;;;;5086327;28;19924;-61
2022/05/04 01:44:31;;;;;;;;;;;;;;;;;;5082525;28;19932;-61
2022/05/04 01:46:57;;;;;;;;;;;;;;;;;;5085829;28;19935;-61
2022/05/04 01:49:24;;;;;;;;;;;;;;;;;;5083907;28;19928;-61
2022/05/04 01:51:50;;;;;;;;;;;;;;;;;;5082547;28;19934;-60
2022/05/04 01:54:16;;;;;;;;;;;;;;;;;;5081469;28;19925;-60
2022/05/04 01:56:42;;;;;;;;;;;;;;;;;;5085011;28;20018;-61
2022/05/04 01:59:08;;;;;;;;;;;;;;;;;;5078228;28;19928;-61
2022/05/04 02:01:34;;;;;;;;;;;;;;;;;;5078607;28;19928;-61
2022/05/04 02:04:00;;;;;;;;;;;;;;;;;;5088310;28;19930;-62
2022/05/04 02:06:27;;;;;;;;;;;;;;;;;;5085032;28;20329;-61
2022/05/04 02:08:53;;;;;;;;;;;;;;;;;;5085259;28;20323;-61
2022/05/04 02:11:22;;;;;;;;;;;;;;;;;;5076360;28;19943;-61
2022/05/04 02:13:48;;;;;;;;;;;;;;;;;;5089492;28;20017;-61
2022/05/04 02:16:14;;;;;;;;;;;;;;;;;;5081357;28;19932;-61
2022/05/04 02:18:41;;;;;;;;;;;;;;;;;;5085468;28;20382;-60
2022/05/04 02:21:07;;;;;;;;;;;;;;;;;;5086562;28;20320;-60
2022/05/04 02:23:33;;;;;;;;;;;;;;;;;;5080722;28;19931;-61
2022/05/04 02:25:59;;;;;;;;;;;;;;;;;;5081297;28;19924;-62
2022/05/04 02:28:25;;;;;;;;;;;;;;;;;;5080318;28;19924;-60
2022/05/04 02:30:51;;;;;;;;;;;;;;;;;;5082756;28;19925;-61
2022/05/04 02:33:17;;;;;;;;;;;;;;;;;;5083288;28;19928;-63
2022/05/04 02:38:28;;;;;;;;;;;;;;;;;;5089662;28;19923;-61
2022/05/04 02:40:54;;;;;;;;;;;;;;;;;;5084636;28;19924;-62
2022/05/04 02:43:20;;;;;;;;;;;;;;;;;;5083274;28;19935;-60
2022/05/04 02:45:46;;;;;;;;;;;;;;;;;;5084039;28;20393;-58
2022/05/04 02:48:12;;;;;;;;;;;;;;;;;;5077571;28;19928;-58
2022/05/04 02:50:38;;;;;;;;;;;;;;;;;;5089377;28;20115;-60
2022/05/04 02:53:05;;;;;;;;;;;;;;;;;;5075832;28;19924;-60
2022/05/04 02:55:31;;;;;;;;;;;;;;;;;;5088962;28;20339;-59
2022/05/04 02:57:57;;;;;;;;;;;;;;;;;;5085203;28;19928;-60
2022/05/04 03:00:24;;;;;;;;;;;;;;;;;;5079938;28;19924;-59
2022/05/04 03:02:50;;;;;;;;;;;;;;;;;;5084898;28;19947;-58
2022/05/04 03:05:16;;;;;;;;;;;;;;;;;;5086685;28;19920;-61
2022/05/04 03:07:43;;;;;;;;;;;;;;;;;;5080551;28;19932;-58
2022/05/04 03:10:09;;;;;;;;;;;;;;;;;;5081079;28;19933;-59
2022/05/04 03:12:35;;;;;;;;;;;;;;;;;;5084634;28;19924;-59
2022/05/04 03:15:01;;;;;;;;;;;;;;;;;;5080574;28;19924;-58
2022/05/04 03:17:28;;;;;;;;;;;;;;;;;;5079498;28;20510;-58
2022/05/04 03:19:54;;;;;;;;;;;;;;;;;;5083966;28;19928;-59
2022/05/04 03:22:20;;;;;;;;;;;;;;;;;;5087808;28;20048;-60
2022/05/04 03:24:47;;;;;;;;;;;;;;;;;;5087576;28;19924;-59
2022/05/04 03:27:13;;;;;;;;;;;;;;;;;;5080678;28;20297;-60
2022/05/04 03:29:39;;;;;;;;;;;;;;;;;;5087936;28;19928;-60
2022/05/04 03:32:05;;;;;;;;;;;;;;;;;;5079211;28;19929;-61
2022/05/04 03:34:31;;;;;;;;;;;;;;;;;;5092398;28;19951;-59
2022/05/04 03:36:58;;;;;;;;;;;;;;;;;;5091709;28;19924;-60
2022/05/04 03:39:25;;;;;;;;;;;;;;;;;;5083282;28;19925;-58
2022/05/04 03:41:51;;;;;;;;;;;;;;;;;;5087937;28;19931;-59
2022/05/04 03:44:17;;;;;;;;;;;;;;;;;;5080877;28;19939;-58
2022/05/04 03:46:43;;;;;;;;;;;;;;;;;;5086768;28;19924;-60
2022/05/04 03:49:09;;;;;;;;;;;;;;;;;;5085827;28;19939;-59
2022/05/04 03:51:35;;;;;;;;;;;;;;;;;;5087654;28;19929;-61
2022/05/04 03:54:02;;;;;;;;;;;;;;;;;;5083081;28;19924;-64
2022/05/04 03:56:28;;;;;;;;;;;;;;;;;;5089938;28;19924;-63
2022/05/04 03:58:54;;;;;;;;;;;;;;;;;;5084092;28;20384;-62
2022/05/04 04:01:20;;;;;;;;;;;;;;;;;;5085248;28;19924;-62
2022/05/04 04:03:46;;;;;;;;;;;;;;;;;;5091363;28;19954;-63
2022/05/04 04:06:13;;;;;;;;;;;;;;;;;;5088693;28;20300;-60
2022/05/04 04:08:39;;;;;;;;;;;;;;;;;;5099019;22;20257;-62
2022/05/04 04:11:05;;;;;;;;;;;;;;;;;;5083834;28;19924;-60
2022/05/04 04:13:32;;;;;;;;;;;;;;;;;;5085407;28;19925;-61
2022/05/04 04:15:58;;;;;;;;;;;;;;;;;;5076577;28;19955;-58
2022/05/04 04:18:24;;;;;;;;;;;;;;;;;;5064745;28;19924;-58
2022/05/04 04:23:34;;;;;;;;;;;;;;;;;;5063734;28;20396;-62
2022/05/04 04:26:00;;;;;;;;;;;;;;;;;;5062374;28;20290;-60
2022/05/04 04:28:26;;;;;;;;;;;;;;;;;;5069009;28;19924;-61
2022/05/04 04:30:52;;;;;;;;;;;;;;;;;;5064332;28;19928;-60
2022/05/04 04:33:19;;;;;;;;;;;;;;;;;;5064209;28;19925;-62
2022/05/04 04:35:45;;;;;;;;;;;;;;;;;;5064324;28;20127;-61
2022/05/04 04:38:11;;;;;;;;;;;;;;;;;;5061961;28;19950;-61
2022/05/04 04:40:37;;;;;;;;;;;;;;;;;;5061993;28;20297;-63
2022/05/04 04:43:03;;;;;;;;;;;;;;;;;;5062839;28;19924;-63
2022/05/04 04:45:30;;;;;;;;;;;;;;;;;;5067894;28;19924;-62
2022/05/04 04:47:56;;;;;;;;;;;;;;;;;;5061074;28;19928;-62
2022/05/04 04:50:25;;;;;;;;;;;;;;;;;;5071466;28;19970;-70
2022/05/04 04:52:51;;;;;;;;;;;;;;;;;;5059510;28;19925;-71
2022/05/04 04:55:17;;;;;;;;;;;;;;;;;;5065822;28;20290;-70
2022/05/04 04:57:44;;;;;;;;;;;;;;;;;;5063915;28;19924;-71
2022/05/04 05:00:10;;;;;;;;;;;;;;;;;;5065752;28;19975;-69
2022/05/04 05:02:37;;;;;;;;;;;;;;;;;;5065865;28;20011;-70
2022/05/04 05:05:03;;;;;;;;;;;;;;;;;;4717952;28;9999916;-70
2022/05/04 05:07:29;;;;;;;;;;;;;;;;;;5055312;28;20306;-70
2022/05/04 05:09:55;;;;;;;;;;;;;;;;;;5054067;28;19936;-71
2022/05/04 05:12:22;;;;;;;;;;;;;;;;;;5063312;28;19939;-71
2022/05/04 05:17:31;;;;;;;;;;;;;;;;;;5064343;28;19922;-69
2022/05/04 05:19:58;;;;;;;;;;;;;;;;;;5064174;28;19939;-71
2022/05/04 05:22:24;;;;;;;;;;;;;;;;;;5067856;28;20334;-70
2022/05/04 05:24:50;;;;;;;;;;;;;;;;;;5068039;28;19928;-73
2022/05/04 05:27:16;;;;;;;;;;;;;;;;;;5058021;28;19932;-70
2022/05/04 05:29:42;;;;;;;;;;;;;;;;;;5059630;28;19955;-70
2022/05/04 05:32:08;;;;;;;;;;;;;;;;;;5051857;28;19929;-71
2022/05/04 05:34:34;;;;;;;;;;;;;;;;;;5057031;28;19928;-70
2022/05/04 05:37:01;;;;;;;;;;;;;;;;;;5054442;28;19935;-70
2022/05/04 05:39:27;;;;;;;;;;;;;;;;;;5066284;28;19933;-70
2022/05/04 05:41:53;;;;;;;;;;;;;;;;;;5058489;28;19970;-70
2022/05/04 05:44:19;;;;;;;;;;;;;;;;;;5066271;28;19928;-69
2022/05/04 05:46:45;;;;;;;;;;;;;;;;;;5061721;28;19932;-71
2022/05/04 05:49:11;;;;;;;;;;;;;;;;;;5058765;28;19944;-71
2022/05/04 05:51:37;;;;;;;;;;;;;;;;;;5062120;28;19951;-71
2022/05/04 05:54:04;;;;;;;;;;;;;;;;;;5067363;28;19928;-71
2022/05/04 05:56:30;;;;;;;;;;;;;;;;;;5059965;28;19928;-72
2022/05/04 05:58:56;;;;;;;;;;;;;;;;;;5063377;28;19932;-70
2022/05/04 06:01:22;;;;;;;;;;;;;;;;;;5064160;28;19928;-71
2022/05/04 06:03:50;;;;;;;;;;;;;;;;;;5053242;28;19928;-71
2022/05/04 06:06:16;;;;;;;;;;;;;;;;;;5066158;28;19928;-69
2022/05/04 06:08:42;;;;;;;;;;;;;;;;;;5061317;28;19936;-70
2022/05/04 06:11:08;;;;;;;;;;;;;;;;;;5065845;28;20004;-70
2022/05/04 06:13:34;;;;;;;;;;;;;;;;;;5057367;28;19928;-70
2022/05/04 06:16:01;;;;;;;;;;;;;;;;;;5063886;28;20389;-70
2022/05/04 06:18:27;;;;;;;;;;;;;;;;;;5061967;28;19940;-70
2022/05/04 06:20:53;;;;;;;;;;;;;;;;;;5064899;28;19928;-71
2022/05/04 06:23:21;;;;;;;;;;;;;;;;;;5060685;28;20444;-70
2022/05/04 06:25:47;;;;;;;;;;;;;;;;;;5057487;28;19929;-70
2022/05/04 06:28:13;;;;;;;;;;;;;;;;;;5063367;28;20087;-70
2022/05/04 06:36:07;;;;;;;;;;;;;;;;;;5062194;28;19940;-70
2022/05/04 06:38:33;;;;;;;;;;;;;;;;;;5065417;28;19928;-69
2022/05/04 06:41:00;;;;;;;;;;;;;;;;;;5064989;28;19928;-71
2022/05/04 06:43:27;;;;;;;;;;;;;;;;;;5057760;28;19960;-70
2022/05/04 06:45:53;;;;;;;;;;;;;;;;;;5062415;28;20007;-69
2022/05/04 06:48:19;;;;;;;;;;;;;;;;;;5054180;28;19940;-70
2022/05/04 06:50:46;;;;;;;;;;;;;;;;;;5061301;28;19933;-70
2022/05/04 06:53:12;;;;;;;;;;;;;;;;;;5058975;28;20167;-70
2022/05/04 06:55:38;;;;;;;;;;;;;;;;;;5063256;28;20386;-69
2022/05/04 06:58:04;;;;;;;;;;;;;;;;;;5059382;28;19929;-70
2022/05/04 07:00:31;;;;;;;;;;;;;;;;;;5058293;28;19935;-69
2022/05/04 07:02:57;;;;;;;;;;;;;;;;;;5060908;28;19928;-69
2022/05/04 07:05:23;;;;;;;;;;;;;;;;;;5069954;28;20604;-69
2022/05/04 07:07:49;;;;;;;;;;;;;;;;;;5062195;28;19928;-69
2022/05/04 07:10:15;;;;;;;;;;;;;;;;;;5063189;28;19928;-69
2022/05/04 07:12:41;;;;;;;;;;;;;;;;;;5060145;28;20390;-69
2022/05/04 07:15:08;;;;;;;;;;;;;;;;;;5060099;28;19928;-69
2022/05/04 07:17:34;;;;;;;;;;;;;;;;;;5069781;28;19939;-68
2022/05/04 07:20:00;;;;;;;;;;;;;;;;;;5060463;28;19928;-70
2022/05/04 07:22:26;;;;;;;;;;;;;;;;;;5063029;28;20392;-70
2022/05/04 07:24:53;;;;;;;;;;;;;;;;;;5064064;28;19978;-70
2022/05/04 07:27:19;;;;;;;;;;;;;;;;;;5061051;28;20011;-70
2022/05/04 07:29:46;;;;;;;;;;;;;;;;;;5058198;28;19928;-68
2022/05/04 07:32:13;;;;;;;;;;;;;;;;;;5059375;28;19929;-68
2022/05/04 07:34:40;;;;;;;;;;;;;;;;;;5057861;28;19928;-68
2022/05/04 07:37:06;;;;;;;;;;;;;;;;;;5055020;28;19935;-68
2022/05/04 07:42:24;;;;;;;;;;;;;;;;;;5058195;28;20054;-69
2022/05/04 07:44:52;;;;;;;;;;;;;;;;;;5060210;28;19932;-67
2022/05/04 07:47:19;;;;;;;;;;;;;;;;;;5059681;28;19935;-68
2022/05/04 07:49:45;;;;;;;;;;;;;;;;;;5059967;28;19925;-69
2022/05/04 07:52:11;;;;;;;;;;;;;;;;;;5060568;28;20392;-68
2022/05/04 07:54:38;;;;;;;;;;;;;;;;;;5062044;28;19947;-68
2022/05/04 07:57:04;;;;;;;;;;;;;;;;;;5062982;28;19929;-69
2022/05/04 07:59:30;;;;;;;;;;;;;;;;;;5062819;28;19950;-68
2022/05/04 08:04:40;;;;;;;;;;;;;;;;;;5062747;28;19925;-68
2022/05/04 08:07:06;;;;;;;;;;;;;;;;;;5068384;28;20297;-69
2022/05/04 08:09:34;;;;;;;;;;;;;;;;;;5059287;28;19925;-68
2022/05/04 08:12:00;;;;;;;;;;;;;;;;;;5059401;28;20162;-68
2022/05/04 08:14:26;;;;;;;;;;;;;;;;;;5065114;28;19929;-68
2022/05/04 08:16:52;;;;;;;;;;;;;;;;;;5065748;28;19928;-67
2022/05/04 08:19:19;;;;;;;;;;;;;;;;;;5061014;28;19925;-68
2022/05/04 08:21:45;;;;;;;;;;;;;;;;;;5057875;28;19932;-68
2022/05/04 08:24:11;;;;;;;;;;;;;;;;;;5058991;28;20396;-67
2022/05/04 08:26:37;;;;;;;;;;;;;;;;;;5061085;28;20666;-68
2022/05/04 08:29:03;;;;;;;;;;;;;;;;;;5067256;28;19924;-68
2022/05/04 08:31:29;;;;;;;;;;;;;;;;;;5062101;28;20216;-68
2022/05/04 08:33:56;;;;;;;;;;;;;;;;;;5060190;28;19924;-69
2022/05/04 08:36:22;;;;;;;;;;;;;;;;;;5060018;28;19924;-68
2022/05/04 08:38:48;;;;;;;;;;;;;;;;;;5062514;28;19928;-67
2022/05/04 08:41:14;;;;;;;;;;;;;;;;;;5054933;28;19924;-68
2022/05/04 08:43:40;;;;;;;;;;;;;;;;;;5063029;28;20397;-69
2022/05/04 08:46:06;;;;;;;;;;;;;;;;;;5059296;28;19925;-69
2022/05/04 08:48:33;;;;;;;;;;;;;;;;;;5056073;28;19947;-67
2022/05/04 08:51:00;;;;;;;;;;;;;;;;;;5062102;28;19968;-67
2022/05/04 08:53:26;;;;;;;;;;;;;;;;;;5065077;28;19932;-68
2022/05/04 08:55:52;;;;;;;;;;;;;;;;;;5057898;28;19955;-68
2022/05/04 08:58:19;;;;;;;;;;;;;;;;;;5058366;28;19936;-67
2022/05/04 09:00:45;;;;;;;;;;;;;;;;;;5064621;28;19928;-68
2022/05/04 09:03:11;;;;;;;;;;;;;;;;;;5059023;28;19928;-67
2022/05/04 09:05:39;;;;;;;;;;;;;;;;;;5063462;28;19983;-68
2022/05/04 09:08:05;;;;;;;;;;;;;;;;;;5056941;28;19933;-68
2022/05/04 09:10:32;;;;;;;;;;;;;;;;;;5055702;28;19925;-68
2022/05/04 09:12:59;;;;;;;;;;;;;;;;;;5056382;28;19929;-69
2022/05/04 09:15:25;;;;;;;;;;;;;;;;;;5059017;28;20295;-68
2022/05/04 09:17:52;;;;;;;;;;;;;;;;;;5060916;28;19974;-68
2022/05/04 09:23:02;;;;;;;;;;;;;;;;;;5056231;28;20276;-68
2022/05/04 09:25:28;;;;;;;;;;;;;;;;;;5059375;28;19929;-70
2022/05/04 09:27:56;;;;;;;;;;;;;;;;;;5064266;28;19935;-68
2022/05/04 09:30:22;;;;;;;;;;;;;;;;;;5063769;28;20152;-68
2022/05/04 09:32:48;;;;;;;;;;;;;;;;;;5056216;28;19932;-68
2022/05/04 09:35:14;;;;;;;;;;;;;;;;;;5067654;28;20553;-68
2022/05/04 09:45:52;;;;;;;;;;;;;;;;;;5062583;28;19923;-67
2022/05/04 09:48:18;;;;;;;;;;;;;;;;;;5063826;28;19932;-68
2022/05/04 09:50:45;;;;;;;;;;;;;;;;;;5067519;28;19928;-67
2022/05/04 09:53:11;;;;;;;;;;;;;;;;;;5066917;28;19932;-67
2022/05/04 09:55:37;;;;;;;;;;;;;;;;;;5067472;28;19928;-67
2022/05/04 09:58:04;;;;;;;;;;;;;;;;;;5062464;28;19932;-67
2022/05/04 10:00:30;;;;;;;;;;;;;;;;;;5066649;28;20021;-67
2022/05/04 10:02:57;;;;;;;;;;;;;;;;;;5067185;28;19925;-68
2022/05/04 10:05:24;;;;;;;;;;;;;;;;;;5063568;28;19928;-68
2022/05/04 10:07:52;;;;;;;;;;;;;;;;;;5061597;28;19934;-69
2022/05/04 10:10:18;;;;;;;;;;;;;;;;;;5060912;28;20389;-67
2022/05/04 10:12:44;;;;;;;;;;;;;;;;;;5058892;28;20256;-67
2022/05/04 10:15:11;;;;;;;;;;;;;;;;;;5056857;28;19928;-68
2022/05/04 10:17:37;;;;;;;;;;;;;;;;;;5062055;28;19925;-67
2022/05/04 10:20:05;;;;;;;;;;;;;;;;;;5061611;28;19924;-67
2022/05/04 10:22:31;;;;;;;;;;;;;;;;;;5058151;28;19924;-68
2022/05/04 10:24:57;;;;;;;;;;;;;;;;;;5058555;28;20007;-68
2022/05/04 10:27:25;;;;;;;;;;;;;;;;;;5064660;28;19960;-67
2022/05/04 10:32:35;;;;;;;;;;;;;;;;;;5055272;28;20027;-67
2022/05/04 10:35:01;;;;;;;;;;;;;;;;;;5055059;28;19933;-67
2022/05/04 10:37:27;;;;;;;;;;;;;;;;;;5058618;28;20666;-67
2022/05/04 10:39:54;;;;;;;;;;;;;;;;;;5056014;28;19928;-67
2022/05/04 10:42:20;;;;;;;;;;;;;;;;;;5062066;28;19928;-67
2022/05/04 10:44:46;;;;;;;;;;;;;;;;;;5055777;28;19929;-67
2022/05/04 10:47:12;;;;;;;;;;;;;;;;;;5064247;28;19928;-68
2022/05/04 10:49:39;;;;;;;;;;;;;;;;;;5064622;28;20046;-68
2022/05/04 10:52:05;;;;;;;;;;;;;;;;;;5063663;28;19925;-67
2022/05/04 10:54:31;;;;;;;;;;;;;;;;;;5053799;28;19932;-68
2022/05/04 10:56:58;;;;;;;;;;;;;;;;;;5058454;28;19925;-68
2022/05/04 10:59:24;;;;;;;;;;;;;;;;;;5055007;28;19924;-68
2022/05/04 11:01:53;;;;;;;;;;;;;;;;;;5050871;28;19960;-67
2022/05/04 11:04:22;;;;;;;;;;;;;;;;;;5061187;28;19936;-67
2022/05/04 11:06:48;;;;;;;;;;;;;;;;;;5059066;28;19924;-67
2022/05/04 11:09:14;;;;;;;;;;;;;;;;;;5064691;28;19932;-68
2022/05/04 11:11:40;;;;;;;;;;;;;;;;;;5077428;28;19943;-67
2022/05/04 11:14:06;;;;;;;;;;;;;;;;;;5072213;28;19929;-68
2022/05/04 11:16:32;;;;;;;;;;;;;;;;;;5075506;28;19928;-67
2022/05/04 11:18:58;;;;;;;;;;;;;;;;;;5071714;28;19924;-68
2022/05/04 11:21:25;;;;;;;;;;;;;;;;;;5070123;28;19924;-68
2022/05/04 11:23:51;;;;;;;;;;;;;;;;;;5076429;28;19924;-68
2022/05/04 11:26:17;;;;;;;;;;;;;;;;;;5077439;28;19913;-67
2022/05/04 11:28:43;;;;;;;;;;;;;;;;;;5080933;28;20081;-68
2022/05/04 11:31:09;;;;;;;;;;;;;;;;;;5078078;28;19940;-68
2022/05/04 11:33:35;;;;;;;;;;;;;;;;;;5086158;28;19991;-68
2022/05/04 11:36:01;;;;;;;;;;;;;;;;;;5072504;28;20003;-68
2022/05/04 11:38:28;;;;;;;;;;;;;;;;;;5069899;28;19999;-68
2022/05/04 11:40:54;;;;;;;;;;;;;;;;;;5071342;28;20320;-68
2022/05/04 11:43:20;;;;;;;;;;;;;;;;;;5070114;28;19939;-68
2022/05/04 11:45:47;;;;;;;;;;;;;;;;;;5077812;28;19928;-68
2022/05/04 11:48:13;;;;;;;;;;;;;;;;;;5077231;28;19925;-68
2022/05/04 11:50:39;;;;;;;;;;;;;;;;;;5077479;28;19936;-67
2022/05/04 11:53:05;;;;;;;;;;;;;;;;;;5076635;28;20028;-68
2022/05/04 11:55:32;;;;;;;;;;;;;;;;;;5076538;28;19928;-69
2022/05/04 11:57:58;;;;;;;;;;;;;;;;;;5066368;28;20424;-66
2022/05/04 12:00:25;;;;;;;;;;;;;;;;;;5064862;28;19929;-68
2022/05/04 12:02:51;;;;;;;;;;;;;;;;;;5058481;28;19925;-68
2022/05/04 12:05:17;;;;;;;;;;;;;;;;;;5081440;28;19982;-68
2022/05/04 12:07:43;;;;;;;;;;;;;;;;;;5082204;28;19928;-68
2022/05/04 12:10:09;;;;;;;;;;;;;;;;;;5070246;28;19940;-67
2022/05/04 12:12:35;;;;;;;;;;;;;;;;;;5059633;28;20390;-67
2022/05/04 12:15:01;;;;;;;;;;;;;;;;;;5058690;28;19928;-68
2022/05/04 12:17:28;;;;;;;;;;;;;;;;;;5060602;28;19931;-67
2022/05/04 12:19:54;;;;;;;;;;;;;;;;;;5061940;28;19960;-68
2022/05/04 12:22:20;;;;;;;;;;;;;;;;;;5066441;28;20411;-68
2022/05/04 12:24:46;;;;;;;;;;;;;;;;;;5064346;28;19931;-68
2022/05/04 12:27:12;;;;;;;;;;;;;;;;;;5058986;28;19924;-67
2022/05/04 12:35:08;;;;;;;;;;;;;;;;;;5059323;28;20428;-67
2022/05/04 12:37:34;;;;;;;;;;;;;;;;;;5064414;28;20023;-67
2022/05/04 12:40:01;;;;;;;;;;;;;;;;;;5054245;28;19933;-67
2022/05/04 12:42:27;;;;;;;;;;;;;;;;;;5057276;28;20118;-67
2022/05/04 12:44:53;;;;;;;;;;;;;;;;;;5058812;28;20396;-67
2022/05/04 12:47:20;;;;;;;;;;;;;;;;;;5059814;28;19937;-68
2022/05/04 12:49:46;;;;;;;;;;;;;;;;;;5058098;28;19932;-67
2022/05/04 12:52:12;;;;;;;;;;;;;;;;;;5059038;28;19932;-68
2022/05/04 12:54:38;;;;;;;;;;;;;;;;;;5066199;28;19929;-67
2022/05/04 12:57:04;;;;;;;;;;;;;;;;;;5063942;28;19924;-67
2022/05/04 12:59:30;;;;;;;;;;;;;;;;;;5063521;28;20381;-67
2022/05/04 13:01:58;;;;;;;;;;;;;;;;;;5066597;28;19931;-67
2022/05/04 13:04:24;;;;;;;;;;;;;;;;;;5059726;28;19970;-67
2022/05/04 13:06:53;;;;;;;;;;;;;;;;;;5059371;28;19935;-67
2022/05/04 13:09:22;;;;;;;;;;;;;;;;;;5058745;28;19935;-67
2022/05/04 13:11:48;;;;;;;;;;;;;;;;;;5061686;28;20057;-67
2022/05/04 13:14:14;;;;;;;;;;;;;;;;;;5063853;28;19929;-67
2022/05/04 13:16:40;;;;;;;;;;;;;;;;;;5063829;28;19950;-65
2022/05/04 13:19:06;;;;;;;;;;;;;;;;;;5057800;28;19929;-67
2022/05/04 13:21:32;;;;;;;;;;;;;;;;;;5059177;28;19928;-67
2022/05/04 13:23:58;;;;;;;;;;;;;;;;;;5058703;28;19935;-67
2022/05/04 13:26:25;;;;;;;;;;;;;;;;;;5061570;28;19948;-66
2022/05/04 13:28:52;;;;;;;;;;;;;;;;;;5058968;28;19936;-66
2022/05/04 13:31:18;;;;;;;;;;;;;;;;;;5060499;28;19967;-67
2022/05/04 13:33:47;;;;;;;;;;;;;;;;;;5062596;28;19929;-67
2022/05/04 13:36:13;;;;;;;;;;;;;;;;;;5064178;28;19938;-66
2022/05/04 13:38:39;;;;;;;;;;;;;;;;;;5067352;28;19929;-67
2022/05/04 13:41:05;;;;;;;;;;;;;;;;;;5059470;28;20352;-66
2022/05/04 13:43:31;;;;;;;;;;;;;;;;;;5067206;28;19928;-66
2022/05/04 13:45:58;;;;;;;;;;;;;;;;;;5056803;28;19936;-67
2022/05/04 13:48:24;;;;;;;;;;;;;;;;;;5062875;28;20005;-66
2022/05/04 13:53:34;;;;;;;;;;;;;;;;;;5059751;28;20309;-67
2022/05/04 13:56:00;;;;;;;;;;;;;;;;;;5058513;28;19935;-68
2022/05/04 13:58:26;;;;;;;;;;;;;;;;;;5061004;28;20487;-69
2022/05/04 14:00:53;;;;;;;;;;;;;;;;;;5053850;28;19929;-67
2022/05/04 14:03:19;;;;;;;;;;;;;;;;;;5052554;28;19933;-58
2022/05/04 14:05:45;;;;;;;;;;;;;;;;;;5057818;28;19936;-64
2022/05/04 14:08:11;;;;;;;;;;;;;;;;;;5053820;28;19929;-69
2022/05/04 14:10:39;;;;;;;;;;;;;;;;;;5054641;28;19944;-62
2022/05/04 14:13:05;;;;;;;;;;;;;;;;;;5057702;28;19995;-68
2022/05/04 14:15:31;;;;;;;;;;;;;;;;;;5053766;28;20051;-66
2022/05/04 14:17:58;;;;;;;;;;;;;;;;;;5062772;28;19936;-69
2022/05/04 14:20:24;;;;;;;;;;;;;;;;;;5060036;28;19928;-67
2022/05/04 14:22:50;;;;;;;;;;;;;;;;;;5064424;28;20316;-67
2022/05/04 14:25:16;;;;;;;;;;;;;;;;;;5068638;28;19928;-67
2022/05/04 14:27:43;;;;;;;;;;;;;;;;;;5068938;28;19928;-67
2022/05/04 14:30:09;;;;;;;;;;;;;;;;;;5070142;28;19925;-67
2022/05/04 14:32:36;;;;;;;;;;;;;;;;;;5072151;28;19924;-68
2022/05/04 14:35:02;;;;;;;;;;;;;;;;;;5058695;28;19925;-67
2022/05/04 14:37:29;;;;;;;;;;;;;;;;;;5065783;28;20275;-67
2022/05/04 14:39:55;;;;;;;;;;;;;;;;;;5057283;28;20442;-66
2022/05/04 14:42:21;;;;;;;;;;;;;;;;;;5058742;28;19932;-67
2022/05/04 14:44:47;;;;;;;;;;;;;;;;;;5063038;28;19934;-66
2022/05/04 14:47:13;;;;;;;;;;;;;;;;;;5066602;28;19935;-67
2022/05/04 14:49:40;;;;;;;;;;;;;;;;;;5055466;28;19932;-67
2022/05/04 14:52:06;;;;;;;;;;;;;;;;;;5053504;28;19925;-67
2022/05/04 14:54:32;;;;;;;;;;;;;;;;;;5052282;28;20187;-67
2022/05/04 14:56:58;;;;;;;;;;;;;;;;;;5051739;28;19925;-66
2022/05/04 14:59:25;;;;;;;;;;;;;;;;;;5051593;28;20240;-66
2022/05/04 15:01:51;;;;;;;;;;;;;;;;;;5054389;28;19940;-66
2022/05/04 15:07:01;;;;;;;;;;;;;;;;;;5051282;28;20400;-66
2022/05/04 15:09:27;;;;;;;;;;;;;;;;;;5058683;28;20385;-67
2022/05/04 15:11:53;;;;;;;;;;;;;;;;;;5050535;28;20425;-66
2022/05/04 15:14:19;;;;;;;;;;;;;;;;;;5052139;28;19993;-66
2022/05/04 15:16:46;;;;;;;;;;;;;;;;;;5055221;28;19974;-65
2022/05/04 15:19:12;;;;;;;;;;;;;;;;;;5061569;28;19947;-66
2022/05/04 15:21:38;;;;;;;;;;;;;;;;;;5057935;28;19925;-67
2022/05/04 15:24:04;;;;;;;;;;;;;;;;;;5061860;28;19925;-67
2022/05/04 15:26:32;;;;;;;;;;;;;;;;;;5061354;28;19932;-66
2022/05/04 15:28:58;;;;;;;;;;;;;;;;;;5052954;28;19925;-66
2022/05/04 15:31:24;;;;;;;;;;;;;;;;;;5062325;28;19998;-67
2022/05/04 15:33:51;;;;;;;;;;;;;;;;;;5060130;28;19929;-65
2022/05/04 15:36:18;;;;;;;;;;;;;;;;;;5065435;28;19987;-67
2022/05/04 15:38:44;;;;;;;;;;;;;;;;;;5057159;28;20012;-66
2022/05/04 15:41:11;;;;;;;;;;;;;;;;;;5058441;28;19929;-66
2022/05/04 15:43:37;;;;;;;;;;;;;;;;;;5058630;28;19924;-66
2022/05/04 15:46:03;;;;;;;;;;;;;;;;;;5056802;28;19928;-66
2022/05/04 15:48:29;;;;;;;;;;;;;;;;;;5061651;28;19932;-67
2022/05/04 15:50:55;;;;;;;;;;;;;;;;;;5059088;28;19940;-66
2022/05/04 15:53:22;;;;;;;;;;;;;;;;;;5056654;28;19939;-65
2022/05/04 15:55:49;;;;;;;;;;;;;;;;;;5053910;28;20370;-66
2022/05/04 15:58:15;;;;;;;;;;;;;;;;;;5061528;28;20023;-67
2022/05/04 16:00:41;;;;;;;;;;;;;;;;;;5058095;28;19932;-66
2022/05/04 16:05:51;;;;;;;;;;;;;;;;;;5058117;28;20030;-65
2022/05/04 16:08:17;;;;;;;;;;;;;;;;;;5052838;28;19955;-65
2022/05/04 16:10:43;;;;;;;;;;;;;;;;;;5057580;28;20007;-66
2022/05/04 16:13:09;;;;;;;;;;;;;;;;;;5059237;28;19928;-66
2022/05/04 16:15:36;;;;;;;;;;;;;;;;;;5062715;28;19928;-67
2022/05/04 16:23:29;;;;;;;;;;;;;;;;;;5069832;28;19920;-66
2022/05/04 16:25:57;;;;;;;;;;;;;;;;;;5064558;28;19925;-65
2022/05/04 16:28:23;;;;;;;;;;;;;;;;;;5067829;28;19935;-67
2022/05/04 16:30:49;;;;;;;;;;;;;;;;;;5069486;28;19928;-65
2022/05/04 16:33:15;;;;;;;;;;;;;;;;;;5060232;28;20628;-65
2022/05/04 16:35:43;;;;;;;;;;;;;;;;;;5058866;28;21505;-66
2022/05/04 16:38:09;;;;;;;;;;;;;;;;;;5057562;28;19947;-66
2022/05/04 16:40:35;;;;;;;;;;;;;;;;;;5069569;28;20369;-65
2022/05/04 16:43:01;;;;;;;;;;;;;;;;;;5068608;28;19956;-65
2022/05/04 16:45:27;;;;;;;;;;;;;;;;;;5058573;28;20122;-65
2022/05/04 16:47:53;;;;;;;;;;;;;;;;;;5068668;28;19928;-65
2022/05/04 16:50:19;;;;;;;;;;;;;;;;;;5069096;28;20294;-66
2022/05/04 16:52:48;;;;;;;;;;;;;;;;;;5069082;28;19928;-65
2022/05/04 16:55:14;;;;;;;;;;;;;;;;;;5068958;28;19929;-66
2022/05/04 16:57:41;;;;;;;;;;;;;;;;;;5068891;28;19932;-66
2022/05/04 17:00:07;;;;;;;;;;;;;;;;;;5067866;28;19932;-66
2022/05/04 17:02:34;;;;;;;;;;;;;;;;;;5063758;28;19936;-66
2022/05/04 17:05:00;;;;;;;;;;;;;;;;;;5053798;28;19929;-67
2022/05/04 17:07:26;;;;;;;;;;;;;;;;;;5061654;28;20034;-66
2022/05/04 17:09:52;;;;;;;;;;;;;;;;;;5063318;28;19936;-66
2022/05/04 17:12:19;;;;;;;;;;;;;;;;;;5058805;28;19928;-67
2022/05/04 17:14:45;;;;;;;;;;;;;;;;;;5053175;28;19959;-66
2022/05/04 17:17:11;;;;;;;;;;;;;;;;;;5056350;28;20415;-66
2022/05/04 17:19:37;;;;;;;;;;;;;;;;;;5056660;28;20404;-67
2022/05/04 17:22:03;;;;;;;;;;;;;;;;;;5057443;28;19951;-66
2022/05/04 17:24:30;;;;;;;;;;;;;;;;;;5052311;28;19929;-67
2022/05/04 17:26:56;;;;;;;;;;;;;;;;;;5066222;28;20454;-66
2022/05/04 17:29:22;;;;;;;;;;;;;;;;;;5068722;28;19933;-68
2022/05/04 17:36:42;;;;;;;;;;;;;;;;;;5065568;28;19928;-65
2022/05/04 17:37:18;;;;;;;;;;;;;;;;;;5060281;28;19924;-65